Time;durP1;ratioP1;P1;durP2;ratioP2;P2;SDS_P1;SDS_P2;PMS_P1;PMS_P2;Temp;Humidity;BMP_temperature;BMP_pressure;BME280_temperature;BME280_humidity;BME280_pressure;Samples;Min_cycle;Max_cycle;Signal;HPM_P1;HPM_P2
2021/10/01 00:00:56;;;;;;;5.25;1.25;;;11.90;99.90;;;;;;5047830;28;20041;-78
2021/10/01 00:03:21;;;;;;;;;;;11.90;99.90;;;;;;5048127;28;20043;-78
2021/10/01 00:05:47;;;;;;;3.05;1.00;;;11.90;99.90;;;;;;5047366;28;20374;-78
2021/10/01 00:08:12;;;;;;;;;;;11.90;99.90;;;;;;5047608;28;20029;-79
2021/10/01 00:10:38;;;;;;;1.48;0.70;;;12.00;99.90;;;;;;5047555;28;19913;-78
2021/10/01 00:13:03;;;;;;;;;;;11.90;99.90;;;;;;5047251;28;20075;-79
2021/10/01 00:15:31;;;;;;;1.70;1.00;;;12.00;99.90;;;;;;5046981;28;19912;-79
2021/10/01 00:17:57;;;;;;;1.17;0.65;;;12.00;99.90;;;;;;5047186;28;20541;-77
2021/10/01 00:20:22;;;;;;;;;;;12.00;99.90;;;;;;5047418;28;20044;-77
2021/10/01 00:22:48;;;;;;;1.70;0.80;;;12.10;99.90;;;;;;5047188;28;19925;-78
2021/10/01 00:25:14;;;;;;;6.22;0.50;;;12.10;99.90;;;;;;5047068;28;20493;-78
2021/10/01 00:27:39;;;;;;;;;;;12.10;99.90;;;;;;5062705;28;20028;-78
2021/10/01 00:30:06;;;;;;;2.20;0.77;;;12.10;99.90;;;;;;5046677;28;19909;-78
2021/10/01 00:32:32;;;;;;;3.00;0.85;;;12.00;99.90;;;;;;5045564;28;20033;-79
2021/10/01 00:34:57;;;;;;;;;;;12.10;99.90;;;;;;5047115;28;20033;-79
2021/10/01 00:37:23;;;;;;;3.00;0.65;;;12.10;99.90;;;;;;5046813;28;20319;-79
2021/10/01 00:39:49;;;;;;;;;;;12.00;99.90;;;;;;5062534;28;20577;-79
2021/10/01 00:42:14;;;;;;;2.00;0.70;;;12.00;99.90;;;;;;5046683;28;20000;-79
2021/10/01 00:44:40;;;;;;;;;;;12.00;99.90;;;;;;5047633;28;20024;-79
2021/10/01 00:47:05;;;;;;;3.03;1.23;;;12.00;99.90;;;;;;5046551;28;19908;-79
2021/10/01 00:49:31;;;;;;;9.73;3.45;;;12.00;99.90;;;;;;5046815;28;20749;-80
2021/10/01 00:51:57;;;;;;;5.43;1.00;;;12.00;99.90;;;;;;5046501;28;20032;-79
2021/10/01 00:54:24;;;;;;;3.08;0.80;;;12.00;99.90;;;;;;5045306;28;20033;-79
2021/10/01 00:56:49;;;;;;;7.10;1.10;;;12.00;99.90;;;;;;5046028;28;20075;-78
2021/10/01 00:59:15;;;;;;;;;;;12.10;99.90;;;;;;5046861;28;20063;-79
2021/10/01 01:01:41;;;;;;;2.47;0.90;;;12.00;99.90;;;;;;5046464;28;19920;-79
2021/10/01 01:04:10;;;;;;;;;;;12.10;99.90;;;;;;5061926;28;20477;-79
2021/10/01 01:07:05;;;;;;;2.28;0.80;;;12.10;99.90;;;;;;5046355;28;19905;-79
2021/10/01 01:09:43;;;;;;;1.95;0.98;;;12.10;99.90;;;;;;5045199;28;20029;-79
2021/10/01 01:12:09;;;;;;;2.65;1.20;;;12.10;99.90;;;;;;5060461;28;20144;-79
2021/10/01 01:14:49;;;;;;;;;;;12.10;99.90;;;;;;5045468;28;20116;-80
2021/10/01 01:17:29;;;;;;;7.43;0.80;;;12.10;99.90;;;;;;5044962;28;19909;-79
2021/10/01 01:20:04;;;;;;;2.42;0.70;;;12.20;99.90;;;;;;5061613;28;20032;-79
2021/10/01 01:22:42;;;;;;;1.90;1.00;;;12.20;99.90;;;;;;5046295;28;20510;-79
2021/10/01 01:25:26;;;;;;;3.28;1.25;;;12.20;99.90;;;;;;5046731;28;20056;-77
2021/10/01 01:28:10;;;;;;;2.08;0.90;;;12.20;99.90;;;;;;5045902;28;20029;-79
2021/10/01 01:30:39;;;;;;;2.88;1.10;;;12.20;99.90;;;;;;5061693;28;20029;-78
2021/10/01 01:33:08;;;;;;;3.70;1.20;;;12.20;99.90;;;;;;5046311;28;20107;-78
2021/10/01 01:35:37;;;;;;;1.80;0.98;;;12.30;99.90;;;;;;5046323;28;20021;-80
2021/10/01 01:38:13;;;;;;;1.88;0.93;;;12.30;99.90;;;;;;5045775;28;20132;-79
2021/10/01 01:40:42;;;;;;;1.90;1.00;;;12.30;99.90;;;;;;5061705;28;20029;-79
2021/10/01 01:43:10;;;;;;;3.20;1.08;;;12.30;99.90;;;;;;5046012;28;20031;-79
2021/10/01 01:45:37;;;;;;;1.83;1.10;;;12.30;99.90;;;;;;5046235;28;20478;-79
2021/10/01 01:48:06;;;;;;;4.25;1.45;;;12.40;99.90;;;;;;5045595;28;20017;-79
2021/10/01 01:50:32;;;;;;;2.05;1.40;;;12.40;99.90;;;;;;5061664;28;20116;-79
2021/10/01 01:52:58;;;;;;;2.90;1.73;;;12.40;99.90;;;;;;5045816;28;20053;-79
2021/10/01 01:55:24;;;;;;;1.95;1.25;;;12.30;99.90;;;;;;5046183;28;20039;-79
2021/10/01 01:57:52;;;;;;;5.50;1.30;;;12.40;99.90;;;;;;5044904;28;20052;-79
2021/10/01 02:00:20;;;;;;;4.47;1.50;;;12.40;99.90;;;;;;5044390;28;20056;-78
2021/10/01 02:02:49;;;;;;;5.32;2.17;;;12.40;99.90;;;;;;5045490;28;20029;-78
2021/10/01 02:05:15;;;;;;;3.67;1.60;;;12.40;99.90;;;;;;5044187;28;20029;-78
2021/10/01 02:07:41;;;;;;;11.93;2.47;;;12.40;99.90;;;;;;5045837;28;20033;-77
2021/10/01 02:10:09;;;;;;;4.00;2.67;;;12.30;99.90;;;;;;5045897;28;20025;-78
2021/10/01 02:12:35;;;;;;;4.32;2.33;;;12.40;99.90;;;;;;5045482;28;20064;-79
2021/10/01 02:15:02;;;;;;;3.70;2.35;;;12.30;99.90;;;;;;5045846;28;20055;-78
2021/10/01 02:17:32;;;;;;;5.00;1.92;;;12.40;99.90;;;;;;5045767;28;20108;-79
2021/10/01 02:20:00;;;;;;;6.32;2.08;;;12.30;99.90;;;;;;5060947;28;20025;-79
2021/10/01 02:22:27;;;;;;;3.50;2.15;;;12.20;99.90;;;;;;5047459;28;20035;-79
2021/10/01 02:24:53;;;;;;;5.32;2.20;;;12.20;99.90;;;;;;5049233;28;20079;-78
2021/10/01 02:27:36;;;;;;;;;;;12.20;99.90;;;;;;5049324;28;20036;-79
2021/10/01 02:30:22;;;;;;;5.47;1.98;;;12.20;99.90;;;;;;5048893;28;19919;-79
2021/10/01 02:32:52;;;;;;;4.63;2.22;;;12.10;99.90;;;;;;5049388;28;20453;-79
2021/10/01 02:35:18;;;;;;;4.38;2.60;;;12.10;99.90;;;;;;5049385;28;20112;-79
2021/10/01 02:37:43;;;;;;;;;;;12.20;99.90;;;;;;5049738;28;20144;-78
2021/10/01 02:40:10;;;;;;;4.68;1.73;;;12.10;99.90;;;;;;5047342;28;19916;-79
2021/10/01 02:42:36;;;;;;;5.25;2.22;;;12.00;99.90;;;;;;5048861;28;20394;-79
2021/10/01 02:45:03;;;;;;;4.07;2.53;;;12.00;99.90;;;;;;5049269;28;20082;-79
2021/10/01 02:47:33;;;;;;;9.27;1.92;;;12.10;99.90;;;;;;5064289;28;20098;-79
2021/10/01 02:50:02;;;;;;;3.65;2.08;;;12.10;99.90;;;;;;5048809;28;20500;-78
2021/10/01 02:52:52;;;;;;;7.07;1.73;;;12.10;99.90;;;;;;5048700;28;20071;-79
2021/10/01 02:55:29;;;;;;;4.18;1.95;;;12.10;99.90;;;;;;5064154;28;20029;-80
2021/10/01 02:57:59;;;;;;;6.38;1.60;;;12.10;99.90;;;;;;5048666;28;20117;-79
2021/10/01 03:00:25;;;;;;;4.05;1.80;;;12.10;99.90;;;;;;5048837;28;20489;-80
2021/10/01 03:02:53;;;;;;;3.88;2.00;;;12.10;99.90;;;;;;5063888;28;20048;-78
2021/10/01 03:05:20;;;;;;;4.47;2.15;;;12.10;99.90;;;;;;5048613;28;20087;-79
2021/10/01 03:07:47;;;;;;;5.30;2.22;;;12.10;99.90;;;;;;5064011;28;20037;-78
2021/10/01 03:10:13;;;;;;;5.00;2.03;;;12.10;99.90;;;;;;5048307;28;20036;-78
2021/10/01 03:12:41;;;;;;;4.82;2.22;;;12.10;99.90;;;;;;5048480;28;20037;-78
2021/10/01 03:15:11;;;;;;;3.95;2.25;;;12.10;99.90;;;;;;5063633;28;20047;-79
2021/10/01 03:17:39;;;;;;;4.75;2.10;;;12.00;99.90;;;;;;5048513;28;20036;-80
2021/10/01 03:20:06;;;;;;;7.97;2.25;;;12.00;99.90;;;;;;5048113;28;20029;-80
2021/10/01 03:22:32;;;;;;;3.95;2.33;;;12.00;99.90;;;;;;5048391;28;20647;-77
2021/10/01 03:25:01;;;;;;;9.30;2.22;;;12.00;99.90;;;;;;5047990;28;20074;-79
2021/10/01 03:27:30;;;;;;;9.50;2.42;;;12.00;99.90;;;;;;5048246;28;20021;-78
2021/10/01 03:30:00;;;;;;;5.10;2.25;;;11.90;99.90;;;;;;5051190;28;20037;-80
2021/10/01 03:32:27;;;;;;;3.92;2.10;;;11.90;99.90;;;;;;5046771;28;20025;-78
2021/10/01 03:34:53;;;;;;;3.25;2.00;;;12.00;99.90;;;;;;5062428;28;20675;-79
2021/10/01 03:37:19;;;;;;;7.70;1.92;;;12.00;99.90;;;;;;5047961;28;20528;-79
2021/10/01 03:39:58;;;;;;;;;;;12.00;99.90;;;;;;5048026;28;20036;-78
2021/10/01 03:42:24;;;;;;;7.60;2.17;;;12.00;99.90;;;;;;5047796;28;19913;-79
2021/10/01 03:44:50;;;;;;;7.15;2.92;;;11.90;99.90;;;;;;5047902;28;20116;-78
2021/10/01 03:47:15;;;;;;;;;;;11.90;99.90;;;;;;5048124;28;20220;-79
2021/10/01 03:49:41;;;;;;;7.03;2.70;;;11.90;99.90;;;;;;5047608;28;20003;-78
2021/10/01 03:52:09;;;;;;;;;;;11.90;99.90;;;;;;5048133;28;20028;-78
2021/10/01 03:54:36;;;;;;;4.40;2.42;;;11.90;99.90;;;;;;5047726;28;19908;-79
2021/10/01 03:57:02;;;;;;;5.53;2.85;;;11.80;99.90;;;;;;5047517;28;20025;-78
2021/10/01 03:59:28;;;;;;;4.05;2.20;;;11.90;99.90;;;;;;5062533;28;20032;-78
2021/10/01 04:01:54;;;;;;;;;;;11.80;99.90;;;;;;5047554;28;20036;-78
2021/10/01 04:04:19;;;;;;;3.63;2.53;;;11.90;99.90;;;;;;5047751;28;19938;-79
2021/10/01 04:06:45;;;;;;;;;;;11.80;99.90;;;;;;5047641;28;20051;-79
2021/10/01 04:09:11;;;;;;;5.53;3.63;;;11.80;99.90;;;;;;5047331;28;20301;-79
2021/10/01 04:11:38;;;;;;;;;;;11.80;99.90;;;;;;5063228;28;20519;-79
2021/10/01 04:14:04;;;;;;;4.75;2.80;;;11.80;99.90;;;;;;5047116;28;20349;-79
2021/10/01 04:16:30;;;;;;;5.45;2.83;;;11.70;99.90;;;;;;5047371;28;20119;-79
2021/10/01 04:18:56;;;;;;;;;;;11.70;99.90;;;;;;5047372;28;20107;-79
2021/10/01 04:21:21;;;;;;;4.25;3.20;;;11.70;99.90;;;;;;5047158;28;19923;-79
2021/10/01 04:23:47;;;;;;;;;;;11.60;99.90;;;;;;5047612;28;20712;-79
2021/10/01 04:26:12;;;;;;;7.97;3.65;;;11.60;99.90;;;;;;5045356;28;19908;-79
2021/10/01 04:28:38;;;;;;;;;;;11.50;99.90;;;;;;5047583;28;20379;-78
2021/10/01 04:31:04;;;;;;;7.15;4.72;;;11.40;99.90;;;;;;5046580;28;20470;-79
2021/10/01 04:33:33;;;;;;;7.45;4.30;;;11.30;99.90;;;;;;5047196;28;20119;-78
2021/10/01 04:35:59;;;;;;;7.43;4.82;;;11.30;99.90;;;;;;5062336;28;20218;-79
2021/10/01 04:38:25;;;;;;;7.95;4.35;;;11.20;99.90;;;;;;5045142;28;20417;-79
2021/10/01 04:40:50;;;;;;;;;;;11.20;99.90;;;;;;5046850;28;20044;-79
2021/10/01 04:43:16;;;;;;;7.57;4.47;;;11.10;99.90;;;;;;5062297;28;19912;-80
2021/10/01 04:45:42;;;;;;;;;;;11.10;99.90;;;;;;5046612;28;20098;-78
2021/10/01 04:48:08;;;;;;;13.05;5.40;;;11.00;99.90;;;;;;5046395;28;19955;-79
2021/10/01 04:50:34;;;;;;;;;;;11.00;99.90;;;;;;5046640;28;20029;-78
2021/10/01 04:53:00;;;;;;;10.35;5.43;;;11.00;99.90;;;;;;5061838;28;19912;-79
2021/10/01 04:55:26;;;;;;;9.07;5.93;;;10.90;99.90;;;;;;5046375;28;20084;-77
2021/10/01 04:57:53;;;;;;;;;;;10.90;99.90;;;;;;5046433;28;20541;-80
2021/10/01 05:00:19;;;;;;;;;;;10.90;99.90;;;;;;5045601;28;19962;-80
2021/10/01 05:02:44;;;;;;;11.25;6.68;;;10.80;99.90;;;;;;5046702;28;19912;-80
2021/10/01 05:05:10;;;;;;;;;;;10.80;99.90;;;;;;5046586;28;20044;-78
2021/10/01 05:07:37;;;;;;;15.30;7.82;;;10.80;99.90;;;;;;5046115;28;19909;-79
2021/10/01 05:10:04;;;;;;;12.55;6.90;;;10.70;99.90;;;;;;5045754;28;20509;-78
2021/10/01 05:12:30;;;;;;;11.50;6.55;;;10.70;99.90;;;;;;5046552;28;20029;-79
2021/10/01 05:14:55;;;;;;;;;;;10.70;99.90;;;;;;5046426;28;20564;-78
2021/10/01 05:17:23;;;;;;;8.95;6.50;;;10.70;99.90;;;;;;5046593;28;19905;-78
2021/10/01 05:19:49;;;;;;;9.48;7.03;;;10.60;99.90;;;;;;5061468;28;20021;-79
2021/10/01 05:22:15;;;;;;;13.95;6.78;;;10.70;99.90;;;;;;5046214;28;20040;-78
2021/10/01 05:24:42;;;;;;;9.25;6.32;;;10.70;99.90;;;;;;5045901;28;20021;-79
2021/10/01 05:27:08;;;;;;;10.85;7.32;;;10.70;99.90;;;;;;5045996;28;20032;-80
2021/10/01 05:29:34;;;;;;;8.98;6.28;;;10.70;99.90;;;;;;5046317;28;20056;-79
2021/10/01 05:31:59;;;;;;;;;;;10.80;99.90;;;;;;5046550;28;20462;-79
2021/10/01 05:34:25;;;;;;;16.65;7.18;;;10.80;99.90;;;;;;5044530;28;19915;-78
2021/10/01 05:36:51;;;;;;;;;;;10.80;99.90;;;;;;5046768;28;20083;-79
2021/10/01 05:39:17;;;;;;;12.77;6.20;;;10.90;99.90;;;;;;5045336;28;19995;-78
2021/10/01 05:41:42;;;;;;;;;;;11.00;99.90;;;;;;5046558;28;20651;-78
2021/10/01 05:44:09;;;;;;;9.05;6.68;;;11.10;99.90;;;;;;5046145;28;19905;-79
2021/10/01 05:46:39;;;;;;;10.55;6.18;;;11.20;99.90;;;;;;5061773;28;20087;-77
2021/10/01 05:49:05;;;;;;;11.27;5.97;;;11.30;99.90;;;;;;5046095;28;20028;-78
2021/10/01 05:51:31;;;;;;;11.63;5.80;;;11.50;99.90;;;;;;5046366;28;20028;-79
2021/10/01 05:56:31;;;;;;;8.48;4.88;;;11.80;99.90;;;;;;5046188;28;19943;-79
2021/10/01 05:58:57;;;;;;;;;;;12.10;99.90;;;;;;5050021;28;20510;-76
2021/10/01 06:01:23;;;;;;;10.00;3.97;;;12.30;99.90;;;;;;5049305;28;20448;-79
2021/10/01 06:03:49;;;;;;;;;;;12.60;99.90;;;;;;5050394;28;20043;-77
2021/10/01 06:06:15;;;;;;;14.18;4.43;;;13.00;99.90;;;;;;5049900;28;20260;-78
2021/10/01 06:08:40;;;;;;;7.35;4.13;;;13.30;99.90;;;;;;5049121;28;20478;-79
2021/10/01 06:11:06;;;;;;;;;;;13.50;99.90;;;;;;5049696;28;20040;-80
2021/10/01 06:13:33;;;;;;;5.88;3.13;;;13.80;99.90;;;;;;5049556;28;19998;-79
2021/10/01 06:15:59;;;;;;;9.68;3.33;;;14.20;99.90;;;;;;5049118;28;20039;-79
2021/10/01 06:18:24;;;;;;;6.05;3.72;;;14.70;99.90;;;;;;5048541;28;20037;-78
2021/10/01 06:20:50;;;;;;;5.47;3.08;;;15.10;99.90;;;;;;5049372;28;20116;-79
2021/10/01 06:23:17;;;;;;;5.78;3.05;;;15.60;99.90;;;;;;5049457;28;20036;-79
2021/10/01 06:25:45;;;;;;;4.57;2.55;;;16.30;99.90;;;;;;5049230;28;20032;-77
2021/10/01 06:28:12;;;;;;;4.57;2.65;;;16.80;99.90;;;;;;5049409;28;20405;-78
2021/10/01 06:30:37;;;;;;;8.57;3.05;;;17.40;99.90;;;;;;5049337;28;20052;-79
2021/10/01 06:33:03;;;;;;;4.43;2.33;;;18.20;99.90;;;;;;5048924;28;20515;-78
2021/10/01 06:35:29;;;;;;;4.13;2.75;;;18.80;98.60;;;;;;5048274;28;20040;-79
2021/10/01 06:37:54;;;;;;;5.10;2.67;;;19.00;96.40;;;;;;5047244;28;20056;-78
2021/10/01 06:40:20;;;;;;;7.63;3.10;;;19.10;95.70;;;;;;5048315;28;20032;-79
2021/10/01 06:42:49;;;;;;;11.75;3.35;;;19.20;95.10;;;;;;5064884;28;20040;-78
2021/10/01 06:45:26;;;;;;;8.05;2.97;;;19.00;94.60;;;;;;5048852;28;20108;-78
2021/10/01 07:20:54;;;;;;;5.00;2.85;;;19.20;94.80;;;;;;5048650;28;20036;-79
2021/10/01 08:18:28;;;;;;;1.83;0.75;;;24.00;65.60;;;;;;5047539;28;20450;-79
2021/10/01 08:20:54;;;;;;;4.35;0.80;;;24.00;62.30;;;;;;5046284;28;20736;-78
2021/10/01 08:23:20;;;;;;;5.82;1.05;;;24.30;61.40;;;;;;5061740;28;20068;-77
2021/10/01 08:25:46;;;;;;;1.85;0.80;;;24.50;59.40;;;;;;5046883;28;20511;-77
2021/10/01 08:28:11;;;;;;;3.47;1.00;;;24.30;59.10;;;;;;5046930;28;20033;-77
2021/10/01 08:30:37;;;;;;;4.45;0.85;;;24.30;59.00;;;;;;5047012;28;20079;-76
2021/10/01 08:33:04;;;;;;;3.35;0.88;;;24.40;57.70;;;;;;5046547;28;20752;-79
2021/10/01 08:35:30;;;;;;;4.13;1.02;;;23.60;59.20;;;;;;5046794;28;20029;-78
2021/10/01 08:37:58;;;;;;;1.25;0.55;;;23.40;59.90;;;;;;5045981;28;20041;-77
2021/10/01 08:40:24;;;;;;;3.38;1.20;;;23.00;61.30;;;;;;5047154;28;20116;-77
2021/10/01 08:42:52;;;;;;;4.68;1.77;;;22.60;66.00;;;;;;5061396;28;20071;-77
2021/10/01 08:45:20;;;;;;;3.50;1.23;;;22.90;65.00;;;;;;5046138;28;20466;-77
2021/10/01 08:47:46;;;;;;;2.80;0.80;;;23.50;65.20;;;;;;5045554;28;20029;-76
2021/10/01 08:50:15;;;;;;;2.17;1.10;;;24.20;63.00;;;;;;5045979;28;20527;-76
2021/10/01 08:52:42;;;;;;;5.95;1.20;;;24.80;59.30;;;;;;5060437;28;20048;-76
2021/10/01 08:55:09;;;;;;;4.53;1.40;;;25.20;59.50;;;;;;5061190;28;20033;-77
2021/10/01 08:57:36;;;;;;;3.30;1.15;;;25.50;59.30;;;;;;5045752;28;20029;-77
2021/10/01 09:00:05;;;;;;;2.22;0.75;;;25.80;57.90;;;;;;5045252;28;20029;-77
2021/10/01 09:02:31;;;;;;;1.80;0.95;;;26.40;54.90;;;;;;5045378;28;20028;-77
2021/10/01 09:04:57;;;;;;;1.83;0.98;;;26.40;55.30;;;;;;5045086;28;20060;-77
2021/10/01 09:07:24;;;;;;;3.13;0.88;;;26.50;53.90;;;;;;5045409;28;20056;-77
2021/10/01 09:09:52;;;;;;;2.47;0.75;;;25.80;53.40;;;;;;5045078;28;20041;-77
2021/10/01 09:12:18;;;;;;;2.85;1.05;;;25.00;54.60;;;;;;5045449;28;20605;-77
2021/10/01 09:14:56;;;;;;;4.30;1.17;;;24.30;55.60;;;;;;5045909;28;20473;-78
2021/10/01 09:17:29;;;;;;;5.90;1.20;;;23.50;59.10;;;;;;5046245;28;20025;-78
2021/10/01 09:19:57;;;;;;;11.80;2.17;;;22.90;60.10;;;;;;5046082;28;20444;-77
2021/10/01 09:22:30;;;;;;;5.55;1.67;;;22.80;60.10;;;;;;5045593;28;20044;-77
2021/10/01 09:25:21;;;;;;;5.90;1.30;;;22.20;61.80;;;;;;5046328;28;20029;-76
2021/10/01 09:27:52;;;;;;;3.20;1.20;;;21.70;62.70;;;;;;5061697;28;20053;-75
2021/10/01 09:30:21;;;;;;;5.05;1.00;;;21.00;64.40;;;;;;5046443;28;20029;-76
2021/10/01 09:33:07;;;;;;;2.92;1.10;;;20.60;66.50;;;;;;5048440;28;20113;-77
2021/10/01 09:35:34;;;;;;;6.45;1.17;;;20.70;67.60;;;;;;5050072;28;20029;-76
2021/10/01 09:38:08;;;;;;;3.00;1.20;;;21.30;69.10;;;;;;5049250;28;20056;-75
2021/10/01 09:40:34;;;;;;;9.07;1.00;;;21.90;66.30;;;;;;5049903;28;20086;-77
2021/10/01 09:43:00;;;;;;;5.88;1.75;;;22.30;65.10;;;;;;5050129;28;20762;-78
2021/10/01 09:45:25;;;;;;;2.88;0.80;;;22.90;63.40;;;;;;5050233;28;20556;-78
2021/10/01 09:47:52;;;;;;;9.75;1.20;;;23.10;62.50;;;;;;5050001;28;20618;-77
2021/10/01 09:50:30;;;;;;;3.75;1.58;;;22.90;62.10;;;;;;5050233;28;20029;-77
2021/10/01 09:53:02;;;;;;;2.28;0.90;;;22.60;62.70;;;;;;5049512;28;20519;-77
2021/10/01 09:55:29;;;;;;;5.72;1.17;;;22.30;63.90;;;;;;5065211;28;20025;-77
2021/10/01 09:58:13;;;;;;;8.07;1.83;;;22.00;64.70;;;;;;5049950;28;20079;-76
2021/10/01 10:00:45;;;;;;;6.18;1.25;;;21.70;66.10;;;;;;5049773;28;20021;-77
2021/10/01 10:03:23;;;;;;;3.53;0.80;;;22.40;66.10;;;;;;5049943;28;20056;-77
2021/10/01 10:06:05;;;;;;;3.25;1.50;;;23.40;63.80;;;;;;5049393;28;20033;-77
2021/10/01 10:08:42;;;;;;;2.47;1.05;;;24.50;60.00;;;;;;5049463;28;20053;-78
2021/10/01 10:11:13;;;;;;;2.33;1.15;;;25.10;58.90;;;;;;5049226;28;20159;-75
2021/10/01 10:13:49;;;;;;;2.80;1.00;;;25.70;56.70;;;;;;5049554;28;20094;-76
2021/10/01 10:16:27;;;;;;;2.85;0.80;;;25.40;56.70;;;;;;5049569;28;20021;-77
2021/10/01 10:18:58;;;;;;;4.53;1.30;;;24.60;55.60;;;;;;5049460;28;20040;-77
2021/10/01 10:21:24;;;;;;;4.35;1.40;;;23.80;58.10;;;;;;5048431;28;20033;-77
2021/10/01 10:23:51;;;;;;;3.90;1.55;;;23.30;61.10;;;;;;5049337;28;20056;-77
2021/10/01 10:26:17;;;;;;;4.07;0.93;;;23.00;61.70;;;;;;5049576;28;20028;-77
2021/10/01 10:28:46;;;;;;;4.25;1.52;;;22.60;62.20;;;;;;5049188;28;20021;-77
2021/10/01 10:31:13;;;;;;;5.00;1.42;;;22.30;62.70;;;;;;5048647;28;20100;-76
2021/10/01 10:33:45;;;;;;;2.45;0.95;;;21.70;62.90;;;;;;5049320;28;20036;-77
2021/10/01 10:36:44;;;;;;;5.05;1.08;;;20.80;65.30;;;;;;5048371;28;20500;-76
2021/10/01 10:39:16;;;;;;;5.65;1.10;;;20.40;68.60;;;;;;5048725;28;20151;-76
2021/10/01 10:41:45;;;;;;;3.20;0.90;;;20.20;69.90;;;;;;5048679;28;20519;-77
2021/10/01 10:44:13;;;;;;;8.68;0.90;;;20.00;71.00;;;;;;5047983;28;20040;-75
2021/10/01 10:46:47;;;;;;;2.63;1.00;;;20.00;71.30;;;;;;5049103;28;20104;-75
2021/10/01 10:54:38;;;;;;;7.25;0.93;;;19.80;71.70;;;;;;5048654;28;20159;-77
2021/10/01 10:57:21;;;;;;;3.90;1.25;;;19.60;73.20;;;;;;5048985;28;20108;-77
2021/10/01 10:59:48;;;;;;;4.97;1.20;;;19.50;73.40;;;;;;5048643;28;20021;-77
2021/10/01 11:02:19;;;;;;;8.57;1.40;;;19.40;74.90;;;;;;5048741;28;20044;-77
2021/10/01 11:04:49;;;;;;;2.53;0.90;;;19.30;75.30;;;;;;5063718;28;20398;-77
2021/10/01 11:07:44;;;;;;;5.07;1.27;;;19.40;75.30;;;;;;5063652;28;20025;-75
2021/10/01 11:10:31;;;;;;;2.53;1.13;;;19.50;73.40;;;;;;5034780;28;20067;-80
2021/10/01 11:13:21;;;;;;;3.47;1.30;;;19.40;74.10;;;;;;5046862;28;20025;-79
2021/10/01 11:16:08;;;;;;;3.08;0.80;;;19.50;73.40;;;;;;5048118;28;20078;-79
2021/10/01 11:18:46;;;;;;;3.63;1.20;;;19.50;73.80;;;;;;5048552;28;20033;-79
2021/10/01 11:21:31;;;;;;;5.20;1.50;;;19.70;73.20;;;;;;5047992;28;20025;-79
2021/10/01 11:24:21;;;;;;;2.75;1.10;;;19.70;73.50;;;;;;5046776;28;20098;-79
2021/10/01 11:26:47;;;;;;;3.58;0.88;;;19.90;73.60;;;;;;5047609;28;20029;-79
2021/10/01 11:29:39;;;;;;;4.38;0.73;;;19.90;72.50;;;;;;5048173;28;20083;-79
2021/10/01 11:32:08;;;;;;;6.07;0.90;;;20.00;72.40;;;;;;5044237;28;20476;-79
2021/10/01 11:34:47;;;;;;;4.05;0.93;;;20.00;72.00;;;;;;5048150;28;20509;-79
2021/10/01 11:37:32;;;;;;;2.70;1.08;;;19.80;71.60;;;;;;5047819;28;20025;-77
2021/10/01 11:40:03;;;;;;;1.58;0.80;;;19.70;72.90;;;;;;5047598;28;20362;-79
2021/10/01 11:42:36;;;;;;;1.90;0.95;;;19.50;72.60;;;;;;5047878;28;20052;-79
2021/10/01 11:45:15;;;;;;;7.30;1.35;;;19.30;73.20;;;;;;5047515;28;20029;-78
2021/10/01 11:47:56;;;;;;;2.58;0.70;;;19.20;74.00;;;;;;5047701;28;20033;-79
2021/10/01 11:50:43;;;;;;;3.63;1.50;;;19.20;73.50;;;;;;5047443;28;20364;-79
2021/10/01 11:53:23;;;;;;;;;;;19.00;73.80;;;;;;5048368;28;20035;-79
2021/10/01 11:55:50;;;;;;;2.67;1.27;;;18.70;75.30;;;;;;5046452;28;19905;-79
2021/10/01 11:58:17;;;;;;;2.65;1.15;;;18.60;76.50;;;;;;5047191;28;20039;-79
2021/10/01 12:00:43;;;;;;;2.65;0.95;;;18.50;75.90;;;;;;5047795;28;20036;-79
2021/10/01 12:03:13;;;;;;;1.90;0.70;;;18.20;76.10;;;;;;5047369;28;20036;-80
2021/10/01 12:05:40;;;;;;;3.67;1.15;;;18.10;77.10;;;;;;5047089;28;20118;-77
2021/10/01 12:08:08;;;;;;;2.55;0.85;;;17.90;78.00;;;;;;5046892;28;20029;-79
2021/10/01 12:10:39;;;;;;;2.75;0.85;;;17.90;78.90;;;;;;5047183;28;20029;-79
2021/10/01 12:13:18;;;;;;;3.53;1.13;;;17.90;78.90;;;;;;5047469;28;20171;-79
2021/10/01 12:16:03;;;;;;;2.28;0.95;;;18.10;78.80;;;;;;5045882;28;20017;-78
2021/10/01 12:19:05;;;;;;;2.50;0.70;;;18.20;76.20;;;;;;5047573;28;20510;-79
2021/10/01 12:21:31;;;;;;;1.95;0.68;;;18.10;77.90;;;;;;5046348;28;20041;-78
2021/10/01 12:24:06;;;;;;;1.77;0.65;;;18.20;77.30;;;;;;5062321;28;20397;-79
2021/10/01 12:26:40;;;;;;;4.55;0.70;;;18.20;75.00;;;;;;5062474;28;20120;-80
2021/10/01 12:29:19;;;;;;;1.75;0.85;;;18.30;76.00;;;;;;5062423;28;20056;-79
2021/10/01 12:31:53;;;;;;;2.63;0.82;;;18.40;75.90;;;;;;5062346;28;20025;-79
2021/10/01 12:34:35;;;;;;;1.88;0.70;;;18.50;75.40;;;;;;5045109;28;20116;-79
2021/10/01 12:37:06;;;;;;;4.13;0.60;;;18.50;75.80;;;;;;5046773;28;20033;-79
2021/10/01 12:39:34;;;;;;;1.05;0.47;;;18.40;75.80;;;;;;5046499;28;20033;-79
2021/10/01 12:42:03;;;;;;;2.78;0.50;;;18.50;74.80;;;;;;5046819;28;20557;-78
2021/10/01 12:44:36;;;;;;;2.67;0.60;;;18.60;75.20;;;;;;5046488;28;20525;-79
2021/10/01 12:47:21;;;;;;;1.52;0.50;;;18.50;73.90;;;;;;5046990;28;20029;-78
2021/10/01 12:50:06;;;;;;;5.97;0.75;;;18.40;75.00;;;;;;5045146;28;20043;-78
2021/10/01 12:52:33;;;;;;;2.13;0.60;;;18.40;75.70;;;;;;5046712;28;20036;-79
2021/10/01 12:55:08;;;;;;;1.20;0.55;;;18.50;75.20;;;;;;5046388;28;20054;-78
2021/10/01 12:57:52;;;;;;;1.23;0.50;;;18.50;75.10;;;;;;5046621;28;20024;-78
2021/10/01 13:00:23;;;;;;;1.65;0.70;;;18.50;74.10;;;;;;5061868;28;20526;-79
2021/10/01 13:02:51;;;;;;;8.63;0.90;;;18.50;73.40;;;;;;5046482;28;20036;-77
2021/10/01 13:05:18;;;;;;;2.60;1.00;;;18.40;73.40;;;;;;5044456;28;20036;-78
2021/10/01 13:08:10;;;;;;;1.60;0.60;;;18.40;74.70;;;;;;5046220;28;20775;-78
2021/10/01 13:10:55;;;;;;;7.07;0.50;;;18.40;74.20;;;;;;5046418;28;20021;-79
2021/10/01 13:13:29;;;;;;;3.17;1.25;;;18.30;73.60;;;;;;5046248;28;20021;-79
2021/10/01 13:16:13;;;;;;;2.33;0.70;;;18.20;72.90;;;;;;5061019;28;20028;-78
2021/10/01 13:18:41;;;;;;;1.75;0.65;;;18.10;73.40;;;;;;5045785;28;20028;-80
2021/10/01 13:21:08;;;;;;;1.40;0.68;;;18.10;73.70;;;;;;5046119;28;20029;-78
2021/10/01 13:23:45;;;;;;;1.35;0.65;;;18.10;74.20;;;;;;5046213;28;20132;-79
2021/10/01 13:26:26;;;;;;;2.30;0.68;;;18.20;74.80;;;;;;5046139;28;20096;-77
2021/10/01 13:29:02;;;;;;;2.17;0.50;;;18.30;75.00;;;;;;5045852;28;20457;-79
2021/10/01 13:31:29;;;;;;;7.17;0.80;;;18.20;75.10;;;;;;5046328;28;20025;-79
2021/10/01 13:33:56;;;;;;;2.30;1.05;;;18.30;74.80;;;;;;5045726;28;20760;-79
2021/10/01 13:36:22;;;;;;;1.95;0.98;;;18.30;74.50;;;;;;5061278;28;20033;-77
2021/10/01 13:38:49;;;;;;;6.40;1.02;;;18.20;74.90;;;;;;5060775;28;20138;-79
2021/10/01 13:41:17;;;;;;;1.23;0.60;;;18.30;73.90;;;;;;5061498;28;20044;-78
2021/10/01 13:43:43;;;;;;;2.10;0.63;;;18.20;73.70;;;;;;5045634;28;20559;-78
2021/10/01 13:46:10;;;;;;;2.28;0.60;;;18.20;74.90;;;;;;5045962;28;20052;-78
2021/10/01 13:48:37;;;;;;;2.90;1.25;;;18.10;73.60;;;;;;5045590;28;20617;-78
2021/10/01 13:51:04;;;;;;;2.50;0.63;;;18.10;74.90;;;;;;5045298;28;20029;-79
2021/10/01 13:53:30;;;;;;;2.97;0.50;;;18.20;75.20;;;;;;5060711;28;20041;-79
2021/10/01 13:55:56;;;;;;;2.55;0.60;;;18.20;75.30;;;;;;5045403;28;20029;-78
2021/10/01 13:58:22;;;;;;;3.88;0.60;;;18.30;75.60;;;;;;5061034;28;20044;-79
2021/10/01 14:00:49;;;;;;;1.15;0.68;;;18.40;74.00;;;;;;5045518;28;20130;-79
2021/10/01 14:03:16;;;;;;;1.25;0.60;;;18.40;73.20;;;;;;5045708;28;20041;-79
2021/10/01 14:05:42;;;;;;;2.08;0.70;;;18.30;73.80;;;;;;5045823;28;20082;-78
2021/10/01 14:08:07;;;;;;;3.47;0.93;;;18.20;74.30;;;;;;5045375;28;20025;-78
2021/10/01 14:10:35;;;;;;;2.92;0.82;;;18.20;74.50;;;;;;5045780;28;20200;-79
2021/10/01 14:13:01;;;;;;;1.45;0.50;;;18.20;74.90;;;;;;5045926;28;20036;-79
2021/10/01 14:15:29;;;;;;;2.45;0.70;;;18.30;74.50;;;;;;5045610;28;20040;-79
2021/10/01 14:17:55;;;;;;;2.10;0.50;;;18.30;74.40;;;;;;5046266;28;20504;-79
2021/10/01 14:20:22;;;;;;;4.25;0.90;;;18.30;72.90;;;;;;5049082;28;20100;-79
2021/10/01 14:22:49;;;;;;;2.53;0.50;;;18.20;72.80;;;;;;5049513;28;20049;-78
2021/10/01 14:25:19;;;;;;;1.17;0.50;;;18.10;72.70;;;;;;5049065;28;20048;-77
2021/10/01 14:27:45;;;;;;;4.50;0.90;;;18.10;72.90;;;;;;5049298;28;20033;-78
2021/10/01 14:30:14;;;;;;;1.95;0.68;;;18.00;70.70;;;;;;5048752;28;20040;-79
2021/10/01 14:32:41;;;;;;;1.85;0.63;;;18.00;71.70;;;;;;5049438;28;20087;-79
2021/10/01 14:35:09;;;;;;;5.22;0.50;;;17.90;72.40;;;;;;5048757;28;20232;-78
2021/10/01 14:37:35;;;;;;;4.53;0.60;;;17.90;73.10;;;;;;5048637;28;20094;-79
2021/10/01 14:40:01;;;;;;;1.55;0.60;;;18.00;73.00;;;;;;5049165;28;20041;-80
2021/10/01 14:42:27;;;;;;;1.25;0.57;;;18.00;72.00;;;;;;5048955;28;20045;-78
2021/10/01 14:44:52;;;;;;;1.05;0.50;;;18.00;71.60;;;;;;5048627;28;20021;-79